createdAt,value
2022-08-03T00:00:00.367Z,202.5
2022-08-03T00:05:00.343Z,202.5
2022-08-03T00:10:00.390Z,202.5
2022-08-03T00:15:00.331Z,202.5
2022-08-03T00:20:00.354Z,73.4
2022-08-03T00:25:00.327Z,67.5
2022-08-03T00:30:00.826Z,67.5
2022-08-03T00:35:12.415Z,67.5
2022-08-03T00:40:05.734Z,126.5
2022-08-03T00:45:00.335Z,134.9
2022-08-03T00:50:00.360Z,120.8
2022-08-03T00:55:00.352Z,133.3
2022-08-03T01:00:00.481Z,135.0
2022-08-03T01:05:00.439Z,135.0
2022-08-03T01:10:00.360Z,135.0
2022-08-03T01:15:00.394Z,135.0
2022-08-03T01:20:02.221Z,135.0
2022-08-03T01:25:00.324Z,135.0
2022-08-03T01:30:00.362Z,135.0
2022-08-03T01:35:00.341Z,135.0
2022-08-03T01:40:00.381Z,135.0
2022-08-03T01:45:00.340Z,135.0
2022-08-03T01:50:00.348Z,135.0
2022-08-03T01:55:00.338Z,135.0
2022-08-03T02:00:00.385Z,135.0
2022-08-03T02:05:00.354Z,135.0
2022-08-03T02:10:00.328Z,135.0
2022-08-03T02:15:01.230Z,135.0
2022-08-03T02:20:00.363Z,135.0
2022-08-03T02:25:00.385Z,135.0
2022-08-03T02:30:00.344Z,135.0
2022-08-03T02:35:00.338Z,135.0
2022-08-03T02:40:00.346Z,135.0
2022-08-03T02:45:00.343Z,135.0
2022-08-03T02:50:00.616Z,135.0
2022-08-03T02:55:00.374Z,135.0
2022-08-03T03:00:00.390Z,135.0
2022-08-03T03:05:54.130Z,135.0
2022-08-03T03:10:00.341Z,135.0
2022-08-03T03:15:00.370Z,135.0
2022-08-03T03:20:00.341Z,135.0
2022-08-03T03:25:00.354Z,135.0
2022-08-03T03:30:00.342Z,135.0
2022-08-03T03:35:00.354Z,135.0
2022-08-03T03:40:00.364Z,135.0
2022-08-03T03:45:02.523Z,135.0
2022-08-03T03:50:00.374Z,135.0
2022-08-03T03:55:02.100Z,135.0
2022-08-03T04:00:00.353Z,135.0
2022-08-03T04:05:00.362Z,135.0
2022-08-03T04:10:15.150Z,135.0
2022-08-03T04:15:00.352Z,135.0
2022-08-03T04:20:00.347Z,135.0
2022-08-03T04:25:00.358Z,135.0
2022-08-03T04:30:00.350Z,135.0
2022-08-03T04:35:00.336Z,135.0
2022-08-03T04:40:00.377Z,135.0
2022-08-03T04:45:02.163Z,135.0
2022-08-03T04:50:00.391Z,135.0
2022-08-03T04:55:00.401Z,135.0
2022-08-03T05:00:03.977Z,135.0
2022-08-03T05:05:00.448Z,135.0
2022-08-03T05:10:03.825Z,135.0
2022-08-03T05:15:00.405Z,154.9
2022-08-03T05:20:00.351Z,179.8
2022-08-03T05:25:00.413Z,159.6
2022-08-03T05:30:33.125Z,162.0
2022-08-03T05:35:55.451Z,169.1
2022-08-03T05:40:00.367Z,162.8
2022-08-03T05:45:00.362Z,179.8
2022-08-03T05:50:00.338Z,176.5
2022-08-03T05:55:00.395Z,172.5
2022-08-03T06:00:00.351Z,202.1
2022-08-03T06:05:00.380Z,164.1
2022-08-03T06:10:33.375Z,175.5
2022-08-03T06:15:00.411Z,188.3
2022-08-03T06:20:00.357Z,207.1
2022-08-03T06:25:12.549Z,170.6
2022-08-03T06:30:00.347Z,190.7
2022-08-03T06:35:00.366Z,194.9
2022-08-03T06:40:01.179Z,192.9
2022-08-03T06:45:00.395Z,196.9
2022-08-03T06:50:21.818Z,192.9
2022-08-03T06:55:00.373Z,193.2
2022-08-03T07:00:12.866Z,191.2
2022-08-03T07:05:00.394Z,189.1
2022-08-03T07:10:02.758Z,180.5
2022-08-03T07:15:03.818Z,178.9
2022-08-03T07:20:00.485Z,182.5
2022-08-03T07:25:00.364Z,180.7
2022-08-03T07:30:00.478Z,50.5
2022-08-03T07:35:01.996Z,184.2
2022-08-03T07:40:00.424Z,188.7
2022-08-03T07:45:00.421Z,188.9
2022-08-03T07:50:00.438Z,208.0
2022-08-03T07:55:00.368Z,203.9
2022-08-03T08:00:03.230Z,198.2
2022-08-03T08:05:06.354Z,198.8
2022-08-03T08:10:00.383Z,181.5
2022-08-03T08:15:00.376Z,216.5
2022-08-03T08:20:01.428Z,190.9
2022-08-03T08:25:01.926Z,192.9
2022-08-03T08:30:19.223Z,173.2
2022-08-03T08:35:00.358Z,190.1
2022-08-03T08:40:00.378Z,165.4
2022-08-03T08:45:00.381Z,192.8
2022-08-03T08:50:28.398Z,192.7
2022-08-03T08:55:00.541Z,195.4
2022-08-03T09:00:00.435Z,207.6
2022-08-03T09:05:07.926Z,180.8
2022-08-03T09:10:15.802Z,205.8
2022-08-03T09:15:17.787Z,285.5
2022-08-03T09:20:04.118Z,174.4
2022-08-03T09:25:25.133Z,227.4
2022-08-03T09:30:00.357Z,195.5
2022-08-03T09:35:00.375Z,183.4
2022-08-03T09:40:00.341Z,178.4
2022-08-03T09:45:00.357Z,185.7
2022-08-03T09:50:00.338Z,201.2
2022-08-03T09:55:00.349Z,179.8
2022-08-03T10:00:08.930Z,174.6
2022-08-03T10:05:00.376Z,188.3
2022-08-03T10:10:32.176Z,204.4
2022-08-03T10:15:00.367Z,184.3
2022-08-03T10:20:00.407Z,125.6
2022-08-03T10:25:00.340Z,191.1
2022-08-03T10:30:00.360Z,197.6
2022-08-03T10:35:21.837Z,305.7
2022-08-03T10:40:00.386Z,321.2
2022-08-03T10:45:00.343Z,175.3
2022-08-03T10:50:00.431Z,194.4
2022-08-03T10:55:00.386Z,207.6
2022-08-03T11:00:00.545Z,171.8
2022-08-03T11:05:00.332Z,93.8
2022-08-03T11:10:00.365Z,210.2
2022-08-03T11:15:00.383Z,184.4
2022-08-03T11:20:00.384Z,206.3
2022-08-03T11:25:00.357Z,257.8
2022-08-03T11:30:00.370Z,242.9
2022-08-03T11:35:00.365Z,240.9
2022-08-03T11:40:03.213Z,192.8
2022-08-03T11:45:00.390Z,201.1
2022-08-03T11:50:00.776Z,203.9
2022-08-03T11:55:00.348Z,191.4
2022-08-03T12:00:00.367Z,185.9
2022-08-03T12:05:00.366Z,181.0
2022-08-03T12:10:00.357Z,209.8
2022-08-03T12:15:00.359Z,186.2
2022-08-03T12:20:00.369Z,257.9
2022-08-03T12:25:00.370Z,284.1
2022-08-03T12:30:00.357Z,216.2
2022-08-03T12:35:02.328Z,189.7
2022-08-03T12:40:13.329Z,191.7
2022-08-03T12:45:00.357Z,210.2
2022-08-03T12:50:00.351Z,203.9
2022-08-03T12:55:00.390Z,179.2
2022-08-03T13:00:01.307Z,230.3
2022-08-03T13:05:00.363Z,193.2
2022-08-03T13:10:08.529Z,194.9
2022-08-03T13:15:00.396Z,192.6
2022-08-03T13:20:00.355Z,215.3
2022-08-03T13:30:00.364Z,107.0
2022-08-03T13:35:00.353Z,211.0
2022-08-03T13:40:06.467Z,232.6
2022-08-03T13:45:00.351Z,269.2
2022-08-03T13:50:03.659Z,178.0
2022-08-03T13:55:00.728Z,220.0
2022-08-03T14:00:00.363Z,201.5
2022-08-03T14:05:00.336Z,246.9
2022-08-03T14:10:00.343Z,215.7
2022-08-03T14:15:02.120Z,243.4
2022-08-03T14:20:00.385Z,204.4
2022-08-03T14:25:04.212Z,205.3
2022-08-03T14:30:00.752Z,201.2
2022-08-03T14:35:00.359Z,204.7
2022-08-03T14:40:01.952Z,196.0
2022-08-03T14:45:20.261Z,222.2
2022-08-03T14:50:40.856Z,184.8
2022-08-03T14:55:00.323Z,217.7
2022-08-03T15:00:00.716Z,216.2
2022-08-03T15:05:00.396Z,199.1
2022-08-03T15:10:02.659Z,198.9
2022-08-03T15:15:00.379Z,200.6
2022-08-03T15:20:39.534Z,84.6
2022-08-03T15:25:00.333Z,305.0
2022-08-03T15:30:10.731Z,230.3
2022-08-03T15:35:00.342Z,160.8
2022-08-03T15:40:01.707Z,230.1
2022-08-03T15:45:00.348Z,171.0
2022-08-03T15:50:00.339Z,324.3
2022-08-03T15:55:00.329Z,200.1
2022-08-03T16:10:00.529Z,191.6
2022-08-03T16:15:00.414Z,217.5
2022-08-03T16:20:00.359Z,195.7
2022-08-03T16:25:00.330Z,204.1
2022-08-03T16:30:00.378Z,228.1
2022-08-03T16:35:00.439Z,203.7
2022-08-03T16:40:00.357Z,261.8
2022-08-03T16:45:00.364Z,252.0
2022-08-03T16:50:01.163Z,255.9
2022-08-03T16:55:00.395Z,230.0
2022-08-03T17:00:00.418Z,293.7
2022-08-03T17:05:01.007Z,262.4
2022-08-03T17:10:00.740Z,220.8
2022-08-03T17:15:01.635Z,250.6
2022-08-03T17:20:09.629Z,225.1
2022-08-03T17:25:07.978Z,202.9
2022-08-03T17:30:00.675Z,195.7
2022-08-03T17:35:00.779Z,217.0
2022-08-03T17:40:04.421Z,226.6
2022-08-03T17:45:07.538Z,254.0
2022-08-03T17:50:01.315Z,221.5
2022-08-03T17:55:51.364Z,225.0
2022-08-03T18:00:03.662Z,225.0
2022-08-03T18:05:01.088Z,225.0
2022-08-03T18:10:15.544Z,225.0
2022-08-03T18:15:20.829Z,225.0
2022-08-03T18:20:32.563Z,225.0
2022-08-03T18:25:07.990Z,225.0
2022-08-03T18:30:00.455Z,225.0
2022-08-03T18:35:00.729Z,209.3
2022-08-03T18:40:00.883Z,202.5
2022-08-03T18:45:55.578Z,202.5
2022-08-03T18:50:00.368Z,202.5
2022-08-03T18:55:25.820Z,202.5
2022-08-03T19:00:02.772Z,202.5
2022-08-03T19:05:01.391Z,202.5
2022-08-03T19:10:04.774Z,202.5
2022-08-03T19:15:03.306Z,202.5
2022-08-03T19:20:02.064Z,202.5
2022-08-03T19:25:00.362Z,202.5
2022-08-03T19:30:26.064Z,202.5
2022-08-03T19:35:00.571Z,202.5
2022-08-03T19:40:00.496Z,202.5
2022-08-03T19:45:01.255Z,202.5
2022-08-03T19:50:14.817Z,202.5
2022-08-03T19:55:00.408Z,202.5
2022-08-03T20:00:10.314Z,202.5
2022-08-03T20:05:00.864Z,202.5
2022-08-03T20:10:02.186Z,202.5
2022-08-03T20:15:01.049Z,202.5
2022-08-03T20:20:00.361Z,202.5
2022-08-03T20:25:00.433Z,202.5
2022-08-03T20:30:08.218Z,202.5
2022-08-03T20:35:00.329Z,202.5
2022-08-03T20:40:00.400Z,202.5
2022-08-03T20:45:58.930Z,202.5
2022-08-03T20:50:00.339Z,202.5
2022-08-03T20:55:14.782Z,202.5
2022-08-03T21:00:01.059Z,202.5
2022-08-03T21:05:09.526Z,202.5
2022-08-03T21:10:00.943Z,202.5
2022-08-03T21:15:00.387Z,202.5
2022-08-03T21:20:00.367Z,202.5
2022-08-03T21:25:00.371Z,202.5
2022-08-03T21:30:00.441Z,202.5
2022-08-03T21:35:00.375Z,202.5
2022-08-03T21:40:00.896Z,202.5
2022-08-03T21:45:00.410Z,202.5
2022-08-03T21:50:10.177Z,202.5
2022-08-03T21:55:00.350Z,202.5
2022-08-03T22:00:00.447Z,202.5
2022-08-03T22:05:06.174Z,202.5
2022-08-03T22:10:00.361Z,202.5
2022-08-03T22:15:02.585Z,202.5
2022-08-03T22:20:00.344Z,202.5
2022-08-03T22:25:00.403Z,202.5
2022-08-03T22:30:00.391Z,202.5
2022-08-03T22:35:00.378Z,202.5
2022-08-03T22:40:00.377Z,202.5
2022-08-03T22:45:00.350Z,202.5
2022-08-03T22:50:31.126Z,202.5
2022-08-03T22:55:00.339Z,202.5
2022-08-03T23:00:00.393Z,202.5
2022-08-03T23:05:00.344Z,202.5
2022-08-03T23:10:00.329Z,202.5
2022-08-03T23:15:00.335Z,202.5
2022-08-03T23:20:00.349Z,202.5
2022-08-03T23:25:00.346Z,202.5
2022-08-03T23:30:00.345Z,202.5
2022-08-03T23:35:00.327Z,202.5
2022-08-03T23:40:00.314Z,202.5
2022-08-03T23:45:06.765Z,202.5
2022-08-03T23:50:00.317Z,202.5
2022-08-03T23:55:00.348Z,202.5
